Time;durP1;ratioP1;P1;durP2;ratioP2;P2;SDS_P1;SDS_P2;PMS_P1;PMS_P2;Temp;Humidity;BMP_temperature;BMP_pressure;BME280_temperature;BME280_humidity;BME280_pressure;Samples;Min_cycle;Max_cycle;Signal;HPM_P1;HPM_P2
2022/11/02 00:03:36;;;;;;;9.40;2.00;;;;;;;10.75;71.71;100993.86;105412;1297;72700;-77
2022/11/02 00:06:03;;;;;;;6.40;1.80;;;;;;;10.76;71.80;100994.46;105413;1289;58229;-78
2022/11/02 00:08:29;;;;;;;9.20;1.60;;;;;;;10.75;71.82;100984.13;105431;1289;72882;-77
2022/11/02 00:10:56;;;;;;;8.10;2.00;;;;;;;10.77;71.71;100976.85;105422;1277;58339;-77
2022/11/02 00:13:22;;;;;;;7.70;1.70;;;;;;;10.76;71.94;100974.16;105383;1294;58161;-77
2022/11/02 00:15:49;;;;;;;6.80;1.60;;;;;;;10.75;72.00;100977.79;105522;1287;58721;-77
2022/11/02 00:18:15;;;;;;;7.10;1.50;;;;;;;10.74;72.10;100975.41;105438;1290;58380;-77
2022/11/02 00:20:42;;;;;;;7.80;1.50;;;;;;;10.71;72.30;100976.40;105380;1291;73717;-77
2022/11/02 00:23:12;;;;;;;7.40;2.00;;;;;;;10.69;72.29;100972.75;105521;1288;62472;-78
2022/11/02 00:25:41;;;;;;;7.00;1.80;;;;;;;10.67;72.29;100967.67;105352;1296;59211;-77
2022/11/02 00:28:08;;;;;;;8.40;1.70;;;;;;;10.64;72.65;100970.31;105404;1292;72579;-77
2022/11/02 00:30:34;;;;;;;7.20;1.70;;;;;;;10.60;72.73;100969.69;105425;1297;70016;-77
2022/11/02 00:33:01;;;;;;;10.10;1.70;;;;;;;10.56;73.03;100964.98;105439;1297;71598;-77
2022/11/02 00:35:28;;;;;;;10.60;1.70;;;;;;;10.53;73.17;100960.54;105500;1289;60686;-77
2022/11/02 00:37:55;;;;;;;7.60;1.40;;;;;;;10.50;73.41;100960.39;105395;1295;59001;-77
2022/11/02 00:40:21;;;;;;;11.20;1.90;;;;;;;10.49;73.50;100963.30;105397;1287;58315;-77
2022/11/02 00:42:48;;;;;;;8.30;1.40;;;;;;;10.48;73.68;100962.21;105472;1287;58178;-77
2022/11/02 00:45:14;;;;;;;5.80;1.50;;;;;;;10.49;73.66;100964.20;105399;1293;58740;-77
2022/11/02 00:47:41;;;;;;;6.40;1.50;;;;;;;10.50;73.64;100957.91;105512;1288;59513;-77
2022/11/02 00:50:08;;;;;;;9.20;1.90;;;;;;;10.51;73.75;100956.56;105526;1289;58705;-77
2022/11/02 00:52:41;;;;;;;7.70;1.50;;;;;;;10.51;73.72;100956.46;105420;1288;74310;-77
2022/11/02 00:55:10;;;;;;;6.70;1.50;;;;;;;10.53;73.65;100952.05;105361;1286;69656;-77
2022/11/02 00:57:43;;;;;;;6.10;1.20;;;;;;;10.54;73.51;100955.13;105424;1297;71455;-77
2022/11/02 01:00:15;;;;;;;9.00;1.60;;;;;;;10.53;73.61;100958.55;105385;1289;60737;-77
2022/11/02 01:02:42;;;;;;;8.70;1.70;;;;;;;10.54;73.55;100956.57;105426;1297;60168;-77
2022/11/02 01:05:16;;;;;;;8.40;1.90;;;;;;;10.52;73.63;100950.36;105422;1289;74862;-77
2022/11/02 01:07:48;;;;;;;7.60;1.80;;;;;;;10.53;73.61;100949.77;105540;1297;71009;-77
2022/11/02 01:10:24;;;;;;;7.80;1.70;;;;;;;10.54;73.56;100952.98;105520;1295;72716;-77
2022/11/02 01:13:02;;;;;;;9.00;1.90;;;;;;;10.57;73.59;100952.88;105381;1297;61274;-77
2022/11/02 01:15:39;;;;;;;7.00;1.50;;;;;;;10.65;73.24;100952.20;105522;1288;59087;-77
2022/11/02 01:18:21;;;;;;;9.70;1.80;;;;;;;10.69;73.05;100948.75;105452;1297;73855;-77
2022/11/02 01:21:49;;;;;;;11.60;2.00;;;;;;;10.75;72.77;100948.95;105497;1291;70464;-77
2022/11/02 01:23:54;;;;;;;7.60;1.60;;;;;;;10.82;72.54;100948.02;105286;1298;71395;-77
2022/11/02 01:26:23;;;;;;;8.20;1.70;;;;;;;10.85;72.37;100946.29;105280;1300;61118;-77
2022/11/02 01:28:52;;;;;;;9.30;1.80;;;;;;;10.87;72.22;100945.85;105427;1290;58382;-77
2022/11/02 01:31:22;;;;;;;9.70;2.10;;;;;;;10.89;72.10;100948.63;105262;1296;72368;-77
2022/11/02 01:33:48;;;;;;;8.00;1.80;;;;;;;10.93;71.94;100948.31;105434;1288;68980;-77
2022/11/02 01:36:21;;;;;;;9.60;2.20;;;;;;;10.96;71.97;100940.94;105367;1287;70512;-77
2022/11/02 01:38:53;;;;;;;6.40;1.50;;;;;;;11.01;71.80;100937.17;105360;1290;60490;-77
2022/11/02 01:41:37;;;;;;;8.60;1.90;;;;;;;11.05;71.58;100928.59;105483;1294;57902;-77
2022/11/02 01:44:24;;;;;;;10.90;1.70;;;;;;;11.08;71.56;100926.85;105467;1295;72683;-77
2022/11/02 01:47:24;;;;;;;7.90;1.30;;;;;;;11.11;71.68;100929.36;105459;1290;70325;-77
2022/11/02 01:49:56;;;;;;;5.20;1.10;;;;;;;11.13;71.48;100921.40;105237;1297;72136;-77
2022/11/02 01:52:37;;;;;;;9.80;1.70;;;;;;;11.13;71.44;100916.57;105274;1293;61546;-77
2022/11/02 01:55:15;;;;;;;10.10;1.80;;;;;;;11.12;71.58;100911.38;105434;1296;60190;-77
2022/11/02 01:57:46;;;;;;;10.10;1.90;;;;;;;11.09;71.56;100908.49;105392;1296;72236;-78
2022/11/02 02:00:17;;;;;;;6.70;1.70;;;;;;;11.08;71.64;100902.79;105445;1297;69974;-77
2022/11/02 02:03:03;;;;;;;8.20;1.70;;;;;;;11.06;71.78;100900.17;105094;1300;71955;-78
2022/11/02 02:06:04;;;;;;;9.10;1.70;;;;;;;11.06;71.88;100895.80;104998;1294;59663;-77
2022/11/02 02:08:39;;;;;;;10.20;2.90;;;;;;;11.05;71.86;100892.22;105069;1299;59620;-78
2022/11/02 02:11:26;;;;;;;6.50;1.80;;;;;;;11.02;71.93;100890.47;104989;1300;73961;-77
2022/11/02 02:14:33;;;;;;;8.00;1.60;;;;;;;11.00;72.03;100891.44;105277;1299;69677;-78
2022/11/02 02:17:29;;;;;;;11.40;1.50;;;;;;;10.99;72.26;100889.27;104537;1298;72593;-77
2022/11/02 02:20:30;;;;;;;9.80;1.80;;;;;;;11.00;72.18;100884.58;104520;1305;60461;-78
2022/11/02 02:23:23;;;;;;;5.30;1.30;;;;;;;11.01;72.19;100882.08;105216;1299;60309;-78
2022/11/02 02:26:16;;;;;;;7.70;1.70;;;;;;;11.04;72.20;100887.67;104908;1300;72929;-78
2022/11/02 02:29:06;;;;;;;6.30;1.50;;;;;;;11.06;72.05;100890.13;105218;1283;69296;-77
2022/11/02 02:31:39;;;;;;;11.70;2.30;;;;;;;11.08;72.10;100885.51;105237;1292;71297;-77
2022/11/02 02:34:16;;;;;;;8.20;1.60;;;;;;;11.07;72.17;100885.72;105089;1298;62276;-76
2022/11/02 02:37:07;;;;;;;7.50;1.70;;;;;;;11.07;72.22;100883.95;105404;1290;58985;-76
2022/11/02 02:40:18;;;;;;;10.90;1.60;;;;;;;11.08;72.12;100879.30;105363;1291;72922;-79
2022/11/02 02:43:03;;;;;;;8.20;2.50;;;;;;;11.07;72.45;100870.15;105343;1297;72317;-78
2022/11/02 02:45:53;;;;;;;8.70;1.70;;;;;;;11.10;72.44;100866.88;105302;1292;70630;-77
2022/11/02 02:48:34;;;;;;;10.70;1.80;;;;;;;11.15;72.40;100864.27;105431;1290;62156;-78
2022/11/02 02:51:21;;;;;;;8.90;1.70;;;;;;;11.20;72.43;100865.50;105426;1297;58797;-77
2022/11/02 02:53:58;;;;;;;10.40;2.00;;;;;;;11.25;72.21;100867.05;105290;1293;73434;-77
2022/11/02 02:56:29;;;;;;;6.60;1.70;;;;;;;11.31;71.94;100858.02;105409;1289;69027;-77
2022/11/02 02:59:03;;;;;;;8.10;1.80;;;;;;;11.35;71.79;100851.69;105382;1297;73097;-77
2022/11/02 03:01:32;;;;;;;7.40;1.70;;;;;;;11.40;71.59;100853.64;105252;1299;60757;-77
2022/11/02 03:03:59;;;;;;;8.90;1.80;;;;;;;11.42;71.52;100858.35;105331;1296;61402;-77
2022/11/02 03:06:33;;;;;;;8.20;1.60;;;;;;;11.44;71.59;100868.64;105408;1297;72313;-77
2022/11/02 03:09:49;;;;;;;6.40;1.60;;;;;;;11.48;71.42;100866.45;105270;1293;69821;-78
2022/11/02 03:12:38;;;;;;;9.20;1.70;;;;;;;11.51;71.34;100861.24;105527;1283;72385;-77
2022/11/02 03:15:42;;;;;;;8.70;1.90;;;;;;;11.57;71.21;100866.59;105441;1298;62400;-77
2022/11/02 03:18:56;;;;;;;8.50;1.60;;;;;;;11.63;70.89;100862.73;105476;1297;58996;-77
2022/11/02 03:21:39;;;;;;;8.30;1.60;;;;;;;11.69;70.86;100862.41;105552;1295;73652;-76
2022/11/02 03:24:45;;;;;;;9.60;1.90;;;;;;;11.71;70.81;100860.94;105250;1300;71099;-77
2022/11/02 03:27:26;;;;;;;8.40;1.80;;;;;;;11.73;70.66;100860.05;105250;1290;72794;-77
2022/11/02 03:30:04;;;;;;;8.10;1.80;;;;;;;11.76;70.70;100862.96;105032;1297;626181;-77
2022/11/02 03:32:50;;;;;;;9.10;1.50;;;;;;;11.79;70.70;100859.61;105429;1297;61675;-77
2022/11/02 03:35:56;;;;;;;7.30;1.80;;;;;;;11.82;70.70;100866.32;105456;1290;73997;-77
2022/11/02 03:38:36;;;;;;;10.10;1.90;;;;;;;11.83;70.73;100867.77;105576;1297;70210;-77
2022/11/02 03:41:10;;;;;;;8.70;1.90;;;;;;;11.85;70.68;100871.52;105475;1296;71161;-77
2022/11/02 03:43:51;;;;;;;7.40;1.60;;;;;;;11.84;70.78;100863.21;105376;1290;60879;-77
2022/11/02 03:46:22;;;;;;;10.50;1.50;;;;;;;11.85;70.85;100860.88;105584;1287;59972;-76
2022/11/02 03:49:02;;;;;;;5.80;1.40;;;;;;;11.86;70.76;100861.81;105726;1289;72430;-77
2022/11/02 03:54:11;;;;;;;9.40;1.60;;;;;;;11.86;71.16;100862.05;105409;1289;71180;-78
2022/11/02 03:56:42;;;;;;;8.40;1.80;;;;;;;11.83;71.34;100858.21;105424;1289;61729;-76
2022/11/02 03:59:09;;;;;;;7.40;1.40;;;;;;;11.81;71.45;100867.29;105249;1297;59466;-77
2022/11/02 04:01:42;;;;;;;9.70;1.80;;;;;;;11.79;71.72;100872.01;105309;1296;72987;-77
2022/11/02 04:04:10;;;;;;;7.10;1.50;;;;;;;11.76;71.91;100871.45;105280;1290;69956;-77
2022/11/02 04:06:41;;;;;;;9.70;1.90;;;;;;;11.75;72.08;100872.08;105415;1294;70649;-77
2022/11/02 04:09:09;;;;;;;9.10;1.80;;;;;;;11.74;72.19;100870.08;105292;1290;60449;-74
2022/11/02 04:14:36;;;;;;;7.70;1.50;;;;;;;11.70;72.53;100866.36;105443;1295;71926;-77
2022/11/02 04:20:01;;;;;;;6.40;1.70;;;;;;;11.64;72.69;100879.02;105373;1290;73237;-77
2022/11/02 04:25:34;;;;;;;10.20;1.70;;;;;;;11.63;72.77;100872.13;105463;1290;60963;-77
2022/11/02 04:28:08;;;;;;;10.30;2.00;;;;;;;11.63;72.75;100871.92;105407;1297;72686;-77
2022/11/02 04:30:35;;;;;;;9.30;1.90;;;;;;;11.66;72.65;100871.77;105315;1283;70024;-77
2022/11/02 04:35:46;;;;;;;7.10;1.60;;;;;;;11.67;72.91;100875.55;105369;1290;60983;-77
2022/11/02 04:43:51;;;;;;;7.90;1.70;;;;;;;11.59;73.18;100872.75;105426;1290;69601;-77
2022/11/02 04:46:30;;;;;;;6.70;1.50;;;;;;;11.58;73.23;100873.73;105470;1294;70979;-76
2022/11/02 04:48:57;;;;;;;10.20;1.90;;;;;;;11.59;72.93;100868.42;105385;1290;60562;-77
2022/11/02 04:51:35;;;;;;;6.00;1.30;;;;;;;11.59;72.82;100873.81;105402;1296;59779;-77
2022/11/02 04:54:14;;;;;;;9.80;1.50;;;;;;;11.61;72.86;100871.00;105369;1297;73010;-77
2022/11/02 04:56:41;;;;;;;10.60;1.50;;;;;;;11.62;72.90;100872.15;105356;1296;58510;-77
2022/11/02 04:59:07;;;;;;;7.70;1.40;;;;;;;11.62;72.89;100870.23;105444;1294;58087;-77
2022/11/02 05:01:37;;;;;;;10.20;1.70;;;;;;;11.62;73.03;100872.68;105356;1289;58660;-76
2022/11/02 05:04:04;;;;;;;8.10;1.80;;;;;;;11.60;72.88;100872.77;105396;1288;58781;-77
2022/11/02 05:06:31;;;;;;;9.10;1.80;;;;;;;11.59;73.04;100872.67;105469;1295;73604;-77
2022/11/02 05:09:09;;;;;;;8.90;2.10;;;;;;;11.62;72.84;100877.02;105473;1290;69704;-77
2022/11/02 05:11:39;;;;;;;6.50;1.60;;;;;;;11.59;73.02;100883.51;105315;1296;71473;-77
2022/11/02 05:14:13;;;;;;;7.50;1.70;;;;;;;11.58;73.01;100883.95;105329;1300;61917;-77
2022/11/02 05:16:49;;;;;;;8.70;1.50;;;;;;;11.58;73.15;100880.45;105496;1296;59867;-76
2022/11/02 05:19:21;;;;;;;8.00;1.60;;;;;;;11.58;73.20;100879.00;105310;1292;73718;-77
2022/11/02 05:21:58;;;;;;;7.30;2.10;;;;;;;11.57;73.14;100882.28;105249;1292;71076;-77
2022/11/02 05:24:32;;;;;;;8.00;1.70;;;;;;;11.56;73.29;100881.44;105375;1300;71486;-77
2022/11/02 05:27:01;;;;;;;9.00;1.70;;;;;;;11.56;73.17;100882.42;105213;1300;60809;-77
2022/11/02 05:29:27;;;;;;;6.00;1.60;;;;;;;11.53;73.41;100880.20;105426;1280;59913;-77
2022/11/02 05:31:55;;;;;;;7.70;1.80;;;;;;;11.50;73.62;100878.27;105415;1294;58876;-76
2022/11/02 05:34:22;;;;;;;7.30;1.60;;;;;;;11.48;73.68;100878.82;105216;1298;71352;-77
2022/11/02 05:36:49;;;;;;;6.30;1.70;;;;;;;11.44;73.84;100869.06;105396;1297;71241;-77
2022/11/02 05:39:16;;;;;;;7.50;1.50;;;;;;;11.41;73.97;100872.93;105156;1300;62036;-77
2022/11/02 05:41:43;;;;;;;6.00;1.60;;;;;;;11.38;74.07;100883.41;105173;1297;58723;-76
2022/11/02 05:44:09;;;;;;;10.30;1.90;;;;;;;11.36;74.10;100887.71;105452;1297;72633;-76
2022/11/02 05:46:36;;;;;;;6.50;1.80;;;;;;;11.33;74.30;100884.34;105439;1290;58787;-76
2022/11/02 05:49:05;;;;;;;9.60;1.50;;;;;;;11.31;74.37;100882.14;105319;1288;71047;-76
2022/11/02 05:51:36;;;;;;;7.20;1.50;;;;;;;11.28;74.53;100887.45;105312;1293;60652;-77
2022/11/02 05:54:08;;;;;;;6.60;1.40;;;;;;;11.30;74.60;100895.38;105452;1289;60709;-76
2022/11/02 05:56:41;;;;;;;6.80;1.60;;;;;;;11.31;74.75;100895.91;105320;1275;73000;-77
2022/11/02 05:59:08;;;;;;;7.20;1.70;;;;;;;11.33;74.76;100893.62;105316;1297;68579;-77
2022/11/02 06:01:35;;;;;;;8.70;1.60;;;;;;;11.33;74.86;100897.95;105333;1297;73775;-75
2022/11/02 06:04:02;;;;;;;7.50;1.40;;;;;;;11.37;74.73;100901.13;105359;1293;62135;-75
2022/11/02 06:06:28;;;;;;;10.60;2.00;;;;;;;11.39;74.46;100899.01;105361;1294;59193;-75
2022/11/02 06:08:55;;;;;;;8.50;1.90;;;;;;;11.41;74.27;100896.55;105355;1297;58215;-75
2022/11/02 06:11:22;;;;;;;12.00;2.50;;;;;;;11.40;74.27;100892.80;105460;1290;70946;-75
2022/11/02 06:13:51;;;;;;;10.00;1.90;;;;;;;11.37;74.46;100897.70;105295;1296;73487;-75
2022/11/02 06:16:18;;;;;;;7.10;2.00;;;;;;;11.37;74.43;100896.64;105482;1290;61866;-74
2022/11/02 06:18:54;;;;;;;11.10;1.70;;;;;;;11.35;74.54;100897.94;105364;1295;59056;-75
2022/11/02 06:21:24;;;;;;;8.30;1.80;;;;;;;11.36;74.64;100901.05;105449;1287;73839;-74
2022/11/02 06:23:51;;;;;;;8.70;1.70;;;;;;;11.34;74.63;100905.48;105430;1297;69808;-74
2022/11/02 06:26:20;;;;;;;8.30;1.90;;;;;;;11.35;74.78;100903.29;105358;1298;72092;-75
2022/11/02 06:28:57;;;;;;;9.70;1.70;;;;;;;11.37;74.59;100902.31;105502;1288;61286;-75
2022/11/02 06:31:32;;;;;;;7.20;1.70;;;;;;;11.37;74.67;100902.02;105502;1272;58558;-74
2022/11/02 06:33:58;;;;;;;6.90;1.70;;;;;;;11.39;74.56;100910.80;105314;1297;58820;-75
2022/11/02 06:36:25;;;;;;;8.70;1.30;;;;;;;11.41;74.60;100909.16;105500;1280;58112;-75
2022/11/02 06:38:53;;;;;;;7.40;1.70;;;;;;;11.42;74.32;100917.32;105493;1280;72752;-76
2022/11/02 06:41:20;;;;;;;7.70;1.80;;;;;;;11.48;74.24;100920.08;105370;1298;58756;-74
2022/11/02 06:43:48;;;;;;;7.70;1.90;;;;;;;11.49;73.93;100919.11;105409;1296;58735;-74
2022/11/02 06:46:14;;;;;;;6.30;1.70;;;;;;;11.53;73.85;100922.14;105366;1294;71766;-74
2022/11/02 06:48:51;;;;;;;22.90;11.70;;;;;;;11.58;74.03;100928.45;105503;1288;69907;-74
2022/11/02 06:51:18;;;;;;;15.50;6.90;;;;;;;11.61;74.00;100932.85;105640;1270;71040;-74
2022/11/02 06:53:55;;;;;;;23.60;13.70;;;;;;;11.64;73.76;100938.37;105598;1293;61049;-74
2022/11/02 06:56:37;;;;;;;18.00;8.30;;;;;;;11.68;73.78;100938.48;105564;1295;58854;-74
2022/11/02 06:59:12;;;;;;;16.90;6.90;;;;;;;11.73;73.47;100943.89;105435;1294;72455;-74
2022/11/02 07:01:39;;;;;;;19.40;9.60;;;;;;;11.76;73.13;100952.02;105475;1297;69831;-74
2022/11/02 07:04:09;;;;;;;19.20;8.70;;;;;;;11.81;72.81;100948.66;105513;1296;72104;-74
2022/11/02 07:06:35;;;;;;;12.90;4.40;;;;;;;11.89;72.57;100950.63;105452;1294;60921;-74
2022/11/02 07:09:05;;;;;;;24.50;13.10;;;;;;;11.94;72.40;100958.17;105343;1287;59792;-74
2022/11/02 07:11:32;;;;;;;10.60;3.60;;;;;;;11.99;72.32;100956.38;105314;1297;74667;-74
2022/11/02 07:14:01;;;;;;;7.80;2.30;;;;;;;12.04;72.07;100962.68;105465;1296;71411;-74
2022/11/02 07:16:29;;;;;;;11.80;3.50;;;;;;;12.09;71.89;100960.05;105543;1294;72422;-74
2022/11/02 07:19:03;;;;;;;24.80;13.30;;;;;;;12.11;71.66;100964.90;105439;1290;60346;-74
2022/11/02 07:21:31;;;;;;;21.70;10.90;;;;;;;12.12;71.37;100973.83;105678;1293;60522;-74
2022/11/02 07:24:10;;;;;;;16.30;8.50;;;;;;;12.15;71.49;100965.19;105601;1281;73970;-74
2022/11/02 07:26:36;;;;;;;17.20;9.40;;;;;;;12.21;71.22;100973.16;105641;1293;58105;-74
2022/11/02 07:29:10;;;;;;;11.50;3.80;;;;;;;12.26;71.09;100979.13;105614;1295;71201;-74
2022/11/02 07:31:37;;;;;;;18.00;9.20;;;;;;;12.34;70.90;100983.52;105632;1294;61416;-74
2022/11/02 07:34:04;;;;;;;6.30;1.70;;;;;;;12.45;70.52;100986.81;105447;1295;59538;-74
2022/11/02 07:36:33;;;;;;;6.70;2.10;;;;;;;12.55;70.47;100991.02;105592;1295;58193;-74
2022/11/02 07:39:07;;;;;;;8.90;2.10;;;;;;;12.62;70.14;100990.73;105507;1298;69655;-74
2022/11/02 07:41:35;;;;;;;11.00;3.70;;;;;;;12.66;69.81;100997.52;105559;1290;73798;-74
2022/11/02 07:44:07;;;;;;;9.50;3.40;;;;;;;12.67;69.93;100991.98;105644;1294;60890;-74
2022/11/02 07:46:38;;;;;;;8.00;2.30;;;;;;;12.69;69.93;100993.23;105374;1287;59442;-73
2022/11/02 07:49:12;;;;;;;15.30;6.20;;;;;;;12.72;69.52;101001.41;105578;1295;74453;-74
2022/11/02 07:51:55;;;;;;;9.70;3.70;;;;;;;12.79;69.09;101005.36;105613;1288;71203;-74
2022/11/02 07:54:29;;;;;;;8.50;2.50;;;;;;;12.90;68.84;101000.52;105632;1294;71830;-74
2022/11/02 07:56:55;;;;;;;14.20;6.70;;;;;;;12.98;68.55;101001.88;105514;1291;58644;-74
2022/11/02 07:59:22;;;;;;;11.20;2.80;;;;;;;13.01;68.32;101002.98;105504;1300;58295;-74
2022/11/02 08:01:49;;;;;;;8.70;2.30;;;;;;;13.07;68.20;100998.71;105631;1293;58114;-74
2022/11/02 08:04:17;;;;;;;8.20;2.20;;;;;;;13.16;67.94;101008.51;105548;1290;69926;-74
2022/11/02 08:06:47;;;;;;;10.90;3.00;;;;;;;13.26;67.66;101010.95;105554;1294;71926;-74
2022/11/02 08:09:21;;;;;;;10.30;3.10;;;;;;;13.33;67.53;101009.79;105553;1280;61607;-74
2022/11/02 08:11:50;;;;;;;10.00;3.40;;;;;;;13.39;67.07;101010.04;105597;1288;60332;-74
2022/11/02 08:14:19;;;;;;;10.60;2.30;;;;;;;13.41;67.02;101010.23;105662;1294;72262;-74
2022/11/02 08:16:53;;;;;;;7.40;1.90;;;;;;;13.48;66.93;101011.86;105653;1288;69687;-74
2022/11/02 08:19:24;;;;;;;7.40;2.30;;;;;;;13.51;66.62;101016.08;105597;1295;71546;-74
2022/11/02 08:21:58;;;;;;;19.20;8.10;;;;;;;13.55;66.63;101023.67;105533;1286;62118;-74
2022/11/02 08:24:34;;;;;;;13.30;6.00;;;;;;;13.59;66.49;101024.30;105695;1286;60554;-74
2022/11/02 08:27:12;;;;;;;9.70;3.40;;;;;;;13.64;66.22;101019.48;105608;1295;72068;-74
2022/11/02 08:29:48;;;;;;;9.10;3.70;;;;;;;13.72;66.23;101027.16;105586;1289;69144;-74
2022/11/02 08:32:14;;;;;;;8.70;1.90;;;;;;;13.81;66.11;101035.43;105531;1295;58673;-74
2022/11/02 08:34:40;;;;;;;10.00;1.90;;;;;;;13.85;65.48;101035.30;105474;1294;58254;-74
2022/11/02 08:37:10;;;;;;;8.40;1.80;;;;;;;13.86;65.37;101035.31;105549;1296;58130;-74
2022/11/02 08:39:39;;;;;;;8.70;3.30;;;;;;;13.85;65.45;101035.84;105479;1295;73540;-74
2022/11/02 08:42:08;;;;;;;10.30;4.70;;;;;;;13.82;65.14;101041.48;105597;1292;70918;-74
2022/11/02 08:44:34;;;;;;;20.00;11.30;;;;;;;13.78;65.21;101047.83;105535;1293;71404;-74
2022/11/02 08:47:10;;;;;;;14.10;3.80;;;;;;;13.74;65.62;101047.31;105436;1297;62317;-74
2022/11/02 08:49:37;;;;;;;13.90;5.40;;;;;;;13.71;65.45;101051.06;105595;1293;58911;-74
2022/11/02 08:52:06;;;;;;;8.60;2.60;;;;;;;13.69;65.41;101053.24;105577;1298;73748;-74
2022/11/02 08:54:38;;;;;;;5.50;1.70;;;;;;;13.70;65.49;101052.93;105428;1296;70330;-74
2022/11/02 08:57:08;;;;;;;13.10;6.40;;;;;;;13.78;65.08;101050.77;105550;1292;73033;-74
2022/11/02 08:59:38;;;;;;;10.50;2.60;;;;;;;13.85;64.51;101058.96;105504;1300;59764;-74
2022/11/02 09:02:08;;;;;;;6.10;1.90;;;;;;;13.89;63.65;101059.02;105591;1297;58685;-74
2022/11/02 09:04:40;;;;;;;9.70;3.90;;;;;;;13.95;63.68;101056.17;105434;1288;73781;-74
2022/11/02 09:07:17;;;;;;;8.40;3.30;;;;;;;13.98;62.98;101070.91;105520;1287;71644;-74
2022/11/02 09:09:44;;;;;;;12.20;5.00;;;;;;;14.03;62.52;101058.14;105533;1295;72859;-74
2022/11/02 09:12:10;;;;;;;11.10;4.00;;;;;;;14.04;62.40;101065.92;105541;1287;58104;-74
2022/11/02 09:14:39;;;;;;;10.80;3.10;;;;;;;14.04;62.56;101066.29;105497;1293;58098;-74
2022/11/02 09:17:05;;;;;;;9.10;3.20;;;;;;;14.04;62.59;101069.57;105581;1294;58092;-74
2022/11/02 09:19:32;;;;;;;6.60;2.10;;;;;;;14.05;62.59;101073.16;105594;1295;69680;-74
2022/11/02 09:21:59;;;;;;;8.50;1.80;;;;;;;14.05;62.71;101067.66;105489;1297;73484;-74
2022/11/02 09:24:31;;;;;;;5.10;1.50;;;;;;;14.07;62.56;101074.80;105494;1298;60090;-74
2022/11/02 09:27:01;;;;;;;8.30;2.70;;;;;;;14.06;62.25;101081.33;105460;1298;61018;-74
2022/11/02 09:29:27;;;;;;;11.70;5.50;;;;;;;14.10;62.55;101075.64;105556;1301;73590;-74
2022/11/02 09:31:54;;;;;;;10.90;3.10;;;;;;;14.13;62.03;101078.79;105520;1296;70861;-74
2022/11/02 09:34:26;;;;;;;6.80;1.90;;;;;;;14.18;61.80;101078.34;105509;1291;70720;-74
2022/11/02 09:36:52;;;;;;;7.00;2.10;;;;;;;14.25;61.23;101080.55;105474;1296;61984;-74
2022/11/02 09:39:29;;;;;;;7.30;2.90;;;;;;;14.32;60.86;101090.56;105582;1290;59298;-74
2022/11/02 09:42:17;;;;;;;6.70;1.90;;;;;;;14.34;60.41;101092.50;105538;1297;75087;-73
2022/11/02 09:44:58;;;;;;;7.40;1.80;;;;;;;14.31;59.82;101104.04;105491;1296;71294;-74
2022/11/02 09:47:29;;;;;;;7.70;2.70;;;;;;;14.33;60.12;101098.94;105331;1301;71130;-74
2022/11/02 09:50:21;;;;;;;5.70;2.80;;;;;;;14.33;59.29;101106.61;105355;1298;60207;-74
2022/11/02 09:52:58;;;;;;;7.40;2.40;;;;;;;14.42;59.29;101104.20;105478;1290;58948;-74
2022/11/02 09:55:32;;;;;;;9.40;2.30;;;;;;;14.50;59.22;101106.13;105350;1288;73592;-74
2022/11/02 09:58:06;;;;;;;5.20;1.70;;;;;;;14.57;58.28;101103.80;105515;1290;71093;-74
2022/11/02 10:00:45;;;;;;;7.30;1.40;;;;;;;14.60;57.36;101117.15;105552;1296;73581;-74
2022/11/02 10:04:03;;;;;;;8.10;2.40;;;;;;;14.67;57.13;101115.90;105549;1296;61390;-74
2022/11/02 10:06:37;;;;;;;6.20;1.30;;;;;;;14.74;56.43;101126.17;105484;1290;58935;-74
2022/11/02 10:13:19;;;;;;;6.20;2.00;;;;;;;14.89;55.17;101128.28;105570;1296;70909;-74
2022/11/02 10:15:54;;;;;;;9.60;3.90;;;;;;;15.09;54.92;101136.50;105522;1292;70836;-75
2022/11/02 10:18:26;;;;;;;4.00;1.30;;;;;;;15.16;53.44;101140.21;105485;1297;58440;-74
2022/11/02 10:20:57;;;;;;;6.20;1.50;;;;;;;15.16;53.05;101143.87;105544;1296;58844;-74
2022/11/02 10:23:41;;;;;;;7.00;1.00;;;;;;;15.07;52.89;101148.69;105488;1296;74066;-74
2022/11/02 10:26:23;;;;;;;5.20;1.20;;;;;;;15.09;52.80;101149.57;105511;1296;71274;-74
2022/11/02 10:29:05;;;;;;;5.00;1.20;;;;;;;15.06;52.41;101155.51;105347;1291;71385;-74
2022/11/02 10:31:35;;;;;;;4.70;1.40;;;;;;;15.04;52.34;101165.39;105536;1291;60689;-74
2022/11/02 10:34:26;;;;;;;6.80;1.00;;;;;;;15.01;52.00;101157.85;105482;1297;59120;-73
2022/11/02 10:37:32;;;;;;;4.30;1.10;;;;;;;14.96;52.23;101167.33;105359;1297;73219;-74
2022/11/02 10:43:33;;;;;;;7.00;1.00;;;;;;;15.17;51.62;101173.89;105545;1290;185889;-83
2022/11/02 10:46:11;;;;;;;5.50;1.10;;;;;;;15.25;51.02;101161.25;105613;1295;59255;-84
2022/11/02 10:48:50;;;;;;;3.90;0.90;;;;;;;15.43;50.84;101166.11;105722;1295;58998;-84
2022/11/02 10:51:18;;;;;;;4.90;0.90;;;;;;;15.44;48.83;101184.09;105642;1287;74481;-82
2022/11/02 10:53:48;;;;;;;5.50;1.30;;;;;;;15.42;48.41;101167.83;105727;1293;70464;-82
2022/11/02 10:56:20;;;;;;;4.30;0.90;;;;;;;15.43;48.83;101185.16;105535;1290;71738;-82
2022/11/02 10:59:02;;;;;;;2.60;0.50;;;;;;;15.34;48.87;101191.45;105604;1293;59197;-82
2022/11/02 11:01:30;;;;;;;4.10;0.70;;;;;;;15.18;49.11;101185.50;105674;1289;59287;-81
2022/11/02 11:04:05;;;;;;;6.00;1.00;;;;;;;15.17;49.32;101193.38;105464;1290;73078;-82
2022/11/02 11:06:40;;;;;;;5.20;1.00;;;;;;;15.17;49.13;101188.28;105465;1298;71623;-82
2022/11/02 11:09:16;;;;;;;4.10;1.00;;;;;;;15.11;49.64;101200.27;105645;1292;71303;-82
2022/11/02 11:12:02;;;;;;;6.90;1.40;;;;;;;15.05;49.98;101198.41;105370;1297;59122;-82
2022/11/02 11:14:32;;;;;;;4.70;0.90;;;;;;;14.96;50.51;101205.82;105635;1293;61383;-80
2022/11/02 11:17:33;;;;;;;5.30;0.90;;;;;;;14.93;50.61;101207.84;105394;1297;75465;-81
2022/11/02 11:20:28;;;;;;;6.20;1.00;;;;;;;14.88;50.67;101215.36;105518;1297;70287;-83
2022/11/02 11:23:14;;;;;;;5.30;1.00;;;;;;;15.11;50.72;101213.55;105507;1299;70721;-83
2022/11/02 11:25:41;;;;;;;6.00;0.90;;;;;;;15.32;49.23;101214.02;105542;1296;60013;-83
2022/11/02 11:28:29;;;;;;;8.00;1.10;;;;;;;15.66;48.17;101215.05;105381;1289;59056;-84
2022/11/02 11:31:10;;;;;;;3.80;0.90;;;;;;;15.99;46.06;101214.20;105312;1288;73551;-84
2022/11/02 11:33:45;;;;;;;5.20;1.00;;;;;;;15.86;46.21;101216.77;105403;1299;69102;-82
2022/11/02 11:36:22;;;;;;;4.40;0.70;;;;;;;15.74;46.46;101215.70;105505;1296;71824;-83
2022/11/02 11:38:49;;;;;;;5.40;1.10;;;;;;;15.84;45.65;101221.86;105493;1290;60470;-84
2022/11/02 11:41:16;;;;;;;3.20;0.70;;;;;;;15.81;46.09;101227.52;105496;1295;60494;-83
2022/11/02 11:43:45;;;;;;;5.40;1.30;;;;;;;15.87;46.49;101225.00;105397;1300;73504;-84
2022/11/02 11:46:14;;;;;;;6.10;1.10;;;;;;;16.17;45.72;101218.00;105521;1297;70802;-84
2022/11/02 11:48:43;;;;;;;5.70;1.00;;;;;;;15.94;45.77;101226.61;105353;1298;71644;-84
2022/11/02 11:51:33;;;;;;;6.80;1.20;;;;;;;15.91;45.51;101217.49;105509;1269;59416;-83
2022/11/02 11:54:28;;;;;;;6.90;1.20;;;;;;;16.37;44.93;101228.20;105684;1295;61048;-84
2022/11/02 11:57:32;;;;;;;5.30;1.00;;;;;;;16.23;44.83;101238.60;105605;1289;73813;-84
2022/11/02 12:00:03;;;;;;;4.70;1.10;;;;;;;15.91;45.71;101248.08;105642;1289;71894;-84
2022/11/02 12:02:34;;;;;;;5.30;0.90;;;;;;;15.60;46.35;101248.53;105604;1287;71761;-84
2022/11/02 12:05:19;;;;;;;6.40;1.40;;;;;;;15.33;47.33;101245.98;105440;1297;59276;-84
2022/11/02 12:08:13;;;;;;;4.60;1.80;;;;;;;15.17;48.33;101246.13;105644;1297;58564;-84
2022/11/02 12:11:18;;;;;;;6.60;1.20;;;;;;;15.08;48.73;101238.55;105573;1289;73209;-84
2022/11/02 12:13:59;;;;;;;5.00;1.00;;;;;;;15.03;49.75;101239.83;105126;1302;71866;-84
2022/11/02 12:16:58;;;;;;;5.80;1.20;;;;;;;15.05;49.91;101233.27;105511;1291;72478;-84
2022/11/02 12:19:58;;;;;;;6.90;1.20;;;;;;;15.15;49.62;101230.86;105721;1271;59389;-81